Time;durP1;ratioP1;P1;durP2;ratioP2;P2;SDS_P1;SDS_P2;PMS_P1;PMS_P2;Temp;Humidity;BMP_temperature;BMP_pressure;BME280_temperature;BME280_humidity;BME280_pressure;Samples;Min_cycle;Max_cycle;Signal;HPM_P1;HPM_P2
2022/11/08 00:01:55;;;;;;;5.30;1.52;;;;;;;;;;5083387;28;20116;-76
2022/11/08 00:04:23;;;;;;;6.28;1.60;;;;;;;;;;5082655;28;20274;-76
2022/11/08 00:15:00;;;;;;;9.10;2.25;;;;;;;;;;5084012;28;20039;-76
2022/11/08 00:17:27;;;;;;;9.55;1.80;;;;;;;;;;5083118;28;20024;-75
2022/11/08 00:19:53;;;;;;;5.85;1.45;;;;;;;;;;5081755;28;20107;-76
2022/11/08 00:22:19;;;;;;;10.25;1.73;;;;;;;;;;5083818;28;20407;-76
2022/11/08 00:24:45;;;;;;;7.65;1.80;;;;;;;;;;5083929;28;20391;-76
2022/11/08 00:27:13;;;;;;;6.72;1.40;;;;;;;;;;5083301;28;20220;-76
2022/11/08 00:29:38;;;;;;;5.80;1.50;;;;;;;;;;5083826;28;20251;-75
2022/11/08 00:32:06;;;;;;;5.38;1.40;;;;;;;;;;5083638;28;20364;-76
2022/11/08 00:34:32;;;;;;;4.65;1.50;;;;;;;;;;5065978;28;20235;-76
2022/11/08 00:36:58;;;;;;;9.95;2.17;;;;;;;;;;5083164;28;20414;-76
2022/11/08 00:39:23;;;;;;;6.03;1.58;;;;;;;;;;5082349;28;20021;-76
2022/11/08 00:41:49;;;;;;;10.63;1.80;;;;;;;;;;5082462;28;20047;-77
2022/11/08 00:44:14;;;;;;;5.88;1.58;;;;;;;;;;5082665;28;20024;-75
2022/11/08 00:46:40;;;;;;;6.47;1.60;;;;;;;;;;5083090;28;20023;-76
2022/11/08 00:49:06;;;;;;;8.55;1.73;;;;;;;;;;5082868;28;20028;-76
2022/11/08 00:51:31;;;;;;;5.95;1.52;;;;;;;;;;5081419;28;20047;-76
2022/11/08 00:53:56;;;;;;;9.15;1.60;;;;;;;;;;5081961;28;20320;-76
2022/11/08 00:56:22;;;;;;;7.00;1.70;;;;;;;;;;5063667;28;20028;-76
2022/11/08 00:58:48;;;;;;;7.22;1.60;;;;;;;;;;5081971;28;20075;-76
2022/11/08 01:01:19;;;;;;;9.45;1.70;;;;;;;;;;5062591;28;20436;-76
2022/11/08 01:03:45;;;;;;;7.05;1.65;;;;;;;;;;5063301;28;20020;-76
2022/11/08 01:06:12;;;;;;;9.60;1.63;;;;;;;;;;5082120;28;20040;-76
2022/11/08 01:08:39;;;;;;;7.15;1.52;;;;;;;;;;5083269;28;20023;-76
2022/11/08 01:11:07;;;;;;;8.93;1.80;;;;;;;;;;5064973;28;20028;-76
2022/11/08 01:13:33;;;;;;;4.95;1.40;;;;;;;;;;5064812;28;20091;-75
2022/11/08 01:16:06;;;;;;;8.43;1.58;;;;;;;;;;5082258;28;20020;-76
2022/11/08 01:18:32;;;;;;;8.82;1.73;;;;;;;;;;5082653;28;20019;-76
2022/11/08 01:20:57;;;;;;;7.60;1.70;;;;;;;;;;5082677;28;20024;-76
2022/11/08 01:23:22;;;;;;;9.10;1.80;;;;;;;;;;5082707;28;20016;-76
2022/11/08 01:25:48;;;;;;;10.63;1.85;;;;;;;;;;5082832;28;20189;-76
2022/11/08 01:28:14;;;;;;;6.53;1.50;;;;;;;;;;5082466;28;20076;-76
2022/11/08 01:30:42;;;;;;;9.15;1.50;;;;;;;;;;5082662;28;20038;-76
2022/11/08 01:33:08;;;;;;;8.25;1.50;;;;;;;;;;5064767;28;20020;-76
2022/11/08 01:35:34;;;;;;;6.78;1.50;;;;;;;;;;5082462;28;20020;-76
2022/11/08 01:38:00;;;;;;;7.80;1.63;;;;;;;;;;5082279;28;20047;-76
2022/11/08 01:40:27;;;;;;;10.00;1.92;;;;;;;;;;5081816;28;20050;-76
2022/11/08 01:42:52;;;;;;;8.10;1.60;;;;;;;;;;5081583;28;20379;-76
2022/11/08 01:45:55;;;;;;;6.43;1.77;;;;;;;;;;5081031;28;20083;-76
2022/11/08 01:48:22;;;;;;;8.93;1.60;;;;;;;;;;5063004;28;20036;-76
2022/11/08 01:50:49;;;;;;;8.07;1.77;;;;;;;;;;5081724;28;20052;-76
2022/11/08 01:53:14;;;;;;;7.85;1.50;;;;;;;;;;5082113;28;20032;-76
2022/11/08 01:55:41;;;;;;;10.52;1.63;;;;;;;;;;5082098;28;20055;-77
2022/11/08 01:58:28;;;;;;;6.82;1.70;;;;;;;;;;5062549;28;20048;-77
2022/11/08 02:00:54;;;;;;;13.60;1.67;;;;;;;;;;5071572;28;20040;-77
2022/11/08 02:03:20;;;;;;;5.15;1.42;;;;;;;;;;5079391;28;20311;-77
2022/11/08 02:05:46;;;;;;;7.78;1.60;;;;;;;;;;5081986;28;20024;-76
2022/11/08 02:08:26;;;;;;;10.45;1.80;;;;;;;;;;5081978;28;20040;-77
2022/11/08 02:10:53;;;;;;;8.35;1.70;;;;;;;;;;5081892;28;20305;-77
2022/11/08 02:13:23;;;;;;;7.32;1.70;;;;;;;;;;5081688;28;20198;-76
2022/11/08 02:15:48;;;;;;;6.85;1.40;;;;;;;;;;5064148;28;20035;-76
2022/11/08 02:18:16;;;;;;;9.32;1.95;;;;;;;;;;5081694;28;20020;-77
2022/11/08 02:20:54;;;;;;;8.63;1.45;;;;;;;;;;5081589;28;20035;-76
2022/11/08 02:23:25;;;;;;;12.40;1.48;;;;;;;;;;5081364;28;20096;-76
2022/11/08 02:25:51;;;;;;;8.85;1.63;;;;;;;;;;5081753;28;20021;-77
2022/11/08 02:28:16;;;;;;;9.15;1.70;;;;;;;;;;5081490;28;20027;-76
2022/11/08 02:30:42;;;;;;;8.30;1.65;;;;;;;;;;5081025;28;20024;-76
2022/11/08 02:33:22;;;;;;;9.30;1.70;;;;;;;;;;5077710;28;20052;-75
2022/11/08 02:35:50;;;;;;;10.93;1.67;;;;;;;;;;5081403;28;20021;-78
2022/11/08 02:38:17;;;;;;;10.68;1.77;;;;;;;;;;5080734;28;20312;-76
2022/11/08 02:40:54;;;;;;;9.45;1.67;;;;;;;;;;5080474;28;20062;-77
2022/11/08 02:43:20;;;;;;;5.40;1.60;;;;;;;;;;5080638;28;20033;-77
2022/11/08 02:45:46;;;;;;;11.00;1.42;;;;;;;;;;5080883;28;20050;-77
2022/11/08 02:48:13;;;;;;;7.47;1.70;;;;;;;;;;5062858;28;20095;-77
2022/11/08 02:50:39;;;;;;;5.72;1.48;;;;;;;;;;5081369;28;20020;-76
2022/11/08 02:53:04;;;;;;;7.15;1.80;;;;;;;;;;5063568;28;20028;-76
2022/11/08 02:55:31;;;;;;;7.93;1.70;;;;;;;;;;5081411;28;20208;-77
2022/11/08 02:57:57;;;;;;;7.03;1.52;;;;;;;;;;5081053;28;20032;-77
2022/11/08 03:00:22;;;;;;;10.10;1.80;;;;;;;;;;5081166;28;20131;-77
2022/11/08 03:02:51;;;;;;;8.70;1.80;;;;;;;;;;5063285;28;20032;-77
2022/11/08 03:05:17;;;;;;;10.57;1.60;;;;;;;;;;5081291;28;20035;-77
2022/11/08 03:07:43;;;;;;;7.18;1.70;;;;;;;;;;5081224;28;20040;-78
2022/11/08 03:10:09;;;;;;;7.85;1.70;;;;;;;;;;5083746;28;20032;-76
2022/11/08 03:12:35;;;;;;;9.70;1.60;;;;;;;;;;5085061;28;20052;-77
2022/11/08 03:15:01;;;;;;;8.43;1.60;;;;;;;;;;5084872;28;20093;-77
2022/11/08 03:17:26;;;;;;;7.40;1.70;;;;;;;;;;5085277;28;20023;-77
2022/11/08 03:19:52;;;;;;;5.45;1.55;;;;;;;;;;5084909;28;20035;-77
2022/11/08 03:22:18;;;;;;;5.90;1.33;;;;;;;;;;5084837;28;20035;-76
2022/11/08 03:24:43;;;;;;;8.88;1.70;;;;;;;;;;5065712;28;20024;-76
2022/11/08 03:27:09;;;;;;;8.20;1.75;;;;;;;;;;5084502;28;20092;-77
2022/11/08 03:29:34;;;;;;;9.25;1.65;;;;;;;;;;5084767;28;20277;-76
2022/11/08 03:31:59;;;;;;;6.28;1.80;;;;;;;;;;5084985;28;20538;-76
2022/11/08 03:34:25;;;;;;;7.85;1.92;;;;;;;;;;5084830;28;20043;-77
2022/11/08 03:36:50;;;;;;;4.95;1.27;;;;;;;;;;5084594;28;20211;-77
2022/11/08 03:39:15;;;;;;;8.98;1.55;;;;;;;;;;5083759;28;20024;-77
2022/11/08 03:41:41;;;;;;;7.97;2.00;;;;;;;;;;5084212;28;20308;-78
2022/11/08 03:44:07;;;;;;;5.60;1.75;;;;;;;;;;5084511;28;20044;-77
2022/11/08 03:46:32;;;;;;;7.93;1.83;;;;;;;;;;5066880;28;20291;-77
2022/11/08 03:48:57;;;;;;;9.48;1.80;;;;;;;;;;5084542;28;20317;-77
2022/11/08 03:51:23;;;;;;;10.60;1.70;;;;;;;;;;5084355;28;20062;-77
2022/11/08 03:53:49;;;;;;;7.95;1.70;;;;;;;;;;5084828;28;20071;-77
2022/11/08 03:56:14;;;;;;;5.93;1.77;;;;;;;;;;5084563;28;20336;-77
2022/11/08 03:58:39;;;;;;;6.25;1.67;;;;;;;;;;5066333;28;20040;-77
2022/11/08 04:01:06;;;;;;;6.95;1.77;;;;;;;;;;5084226;28;20028;-77
2022/11/08 04:03:31;;;;;;;6.25;1.63;;;;;;;;;;5084305;28;20021;-77
2022/11/08 04:05:59;;;;;;;8.20;1.90;;;;;;;;;;5084409;28;20023;-77
2022/11/08 04:08:26;;;;;;;7.80;1.70;;;;;;;;;;5084226;28;20032;-76
2022/11/08 04:10:56;;;;;;;5.75;1.63;;;;;;;;;;5084088;28;20032;-76
2022/11/08 04:16:07;;;;;;;11.05;2.00;;;;;;;;;;5084205;28;20078;-75
2022/11/08 04:21:18;;;;;;;7.47;1.70;;;;;;;;;;5083387;28;20035;-77
2022/11/08 04:23:45;;;;;;;10.07;1.80;;;;;;;;;;5083853;28;20023;-76
2022/11/08 04:26:11;;;;;;;8.30;1.73;;;;;;;;;;5066167;28;20024;-76
2022/11/08 04:28:38;;;;;;;10.75;1.80;;;;;;;;;;5083404;28;20181;-76
2022/11/08 04:31:12;;;;;;;5.90;1.80;;;;;;;;;;5082309;28;20037;-77
2022/11/08 04:33:38;;;;;;;11.32;1.80;;;;;;;;;;5082139;28;20020;-77
2022/11/08 04:36:06;;;;;;;10.20;2.15;;;;;;;;;;5082295;28;20047;-77
2022/11/08 04:38:32;;;;;;;6.55;1.65;;;;;;;;;;5082854;28;20032;-77
2022/11/08 04:41:00;;;;;;;8.45;1.90;;;;;;;;;;5082909;28;20032;-76
2022/11/08 04:43:25;;;;;;;10.50;2.10;;;;;;;;;;5065463;28;20017;-76
2022/11/08 04:45:50;;;;;;;6.97;1.60;;;;;;;;;;5065601;28;20027;-76
2022/11/08 04:48:16;;;;;;;6.25;1.65;;;;;;;;;;5083457;28;20346;-76
2022/11/08 04:50:41;;;;;;;10.00;1.77;;;;;;;;;;5083450;28;20020;-76
2022/11/08 04:53:06;;;;;;;7.95;1.75;;;;;;;;;;5083417;28;20012;-76
2022/11/08 04:55:32;;;;;;;5.70;1.60;;;;;;;;;;5083348;28;20016;-76
2022/11/08 04:57:58;;;;;;;9.02;1.77;;;;;;;;;;5082080;28;20048;-76
2022/11/08 05:00:24;;;;;;;8.93;2.03;;;;;;;;;;5065203;28;20032;-76
2022/11/08 05:02:49;;;;;;;6.18;1.70;;;;;;;;;;5083317;28;20029;-76
2022/11/08 05:05:15;;;;;;;7.68;1.67;;;;;;;;;;5083146;28;20021;-77
2022/11/08 05:07:40;;;;;;;9.57;1.60;;;;;;;;;;5082453;28;20024;-76
2022/11/08 05:10:06;;;;;;;8.43;2.00;;;;;;;;;;5082922;28;20216;-77
2022/11/08 05:12:31;;;;;;;7.38;2.03;;;;;;;;;;5082592;28;20012;-77
2022/11/08 05:14:57;;;;;;;10.10;2.35;;;;;;;;;;5082144;28;20090;-77
2022/11/08 05:17:22;;;;;;;6.18;1.77;;;;;;;;;;5082937;28;20210;-76
2022/11/08 05:25:15;;;;;;;11.00;1.88;;;;;;;;;;5082738;28;20052;-76
2022/11/08 05:27:41;;;;;;;7.95;1.92;;;;;;;;;;5082764;28;20021;-76
2022/11/08 05:30:07;;;;;;;9.85;2.10;;;;;;;;;;5082563;28;20028;-77
2022/11/08 05:32:32;;;;;;;9.48;1.98;;;;;;;;;;5063852;28;20035;-77
2022/11/08 05:34:57;;;;;;;7.72;1.67;;;;;;;;;;5082293;28;20317;-77
2022/11/08 05:37:23;;;;;;;7.63;1.70;;;;;;;;;;5082191;28;20138;-77
2022/11/08 05:39:48;;;;;;;8.07;1.80;;;;;;;;;;5082379;28;20033;-76
2022/11/08 05:42:13;;;;;;;6.53;1.58;;;;;;;;;;5081813;28;20020;-76
2022/11/08 05:44:39;;;;;;;7.30;1.80;;;;;;;;;;5082366;28;20130;-76
2022/11/08 05:47:04;;;;;;;7.93;1.75;;;;;;;;;;5082091;28;20450;-76
2022/11/08 05:49:30;;;;;;;11.25;2.10;;;;;;;;;;5081537;28;20032;-76
2022/11/08 05:51:55;;;;;;;11.88;1.88;;;;;;;;;;5082238;28;20025;-75
2022/11/08 05:54:20;;;;;;;9.65;1.98;;;;;;;;;;5082187;28;20044;-77
2022/11/08 05:56:46;;;;;;;7.68;1.95;;;;;;;;;;5064044;28;20313;-76
2022/11/08 05:59:11;;;;;;;8.13;2.08;;;;;;;;;;5081810;28;20021;-76
2022/11/08 06:01:36;;;;;;;8.02;1.90;;;;;;;;;;5063662;28;20354;-77
2022/11/08 06:04:02;;;;;;;7.75;1.90;;;;;;;;;;5081664;28;20051;-77
2022/11/08 06:06:27;;;;;;;10.32;1.80;;;;;;;;;;5081911;28;20021;-77
2022/11/08 06:08:52;;;;;;;8.27;1.75;;;;;;;;;;5082085;28;20023;-76
2022/11/08 06:11:20;;;;;;;9.98;2.05;;;;;;;;;;5081687;28;20066;-76
2022/11/08 06:13:45;;;;;;;10.73;2.17;;;;;;;;;;5081779;28;20047;-76
2022/11/08 06:16:14;;;;;;;8.35;2.00;;;;;;;;;;5063727;28;20075;-76
2022/11/08 06:18:40;;;;;;;10.13;2.15;;;;;;;;;;5063919;28;20024;-76
2022/11/08 06:21:09;;;;;;;8.90;1.80;;;;;;;;;;5080806;28;20028;-76
2022/11/08 06:23:35;;;;;;;7.13;1.95;;;;;;;;;;5079953;28;20389;-75
2022/11/08 06:26:00;;;;;;;15.50;2.20;;;;;;;;;;5081085;28;20024;-76
2022/11/08 06:28:26;;;;;;;10.50;1.90;;;;;;;;;;5080793;28;20363;-76
2022/11/08 06:30:51;;;;;;;11.55;2.03;;;;;;;;;;5063221;28;20028;-76
2022/11/08 06:33:18;;;;;;;12.98;2.15;;;;;;;;;;5063550;28;20099;-77
2022/11/08 06:35:44;;;;;;;7.20;2.03;;;;;;;;;;5081465;28;20300;-76
2022/11/08 06:38:09;;;;;;;8.68;1.95;;;;;;;;;;5062527;28;20024;-76
2022/11/08 06:40:39;;;;;;;9.23;1.95;;;;;;;;;;5061965;28;20028;-77
2022/11/08 06:43:05;;;;;;;7.65;1.92;;;;;;;;;;5081013;28;20062;-77
2022/11/08 06:45:30;;;;;;;10.35;1.98;;;;;;;;;;5080639;28;20286;-76
2022/11/08 06:47:59;;;;;;;8.98;1.98;;;;;;;;;;5081487;28;20367;-76
2022/11/08 06:50:27;;;;;;;7.55;2.20;;;;;;;;;;5081108;28;20051;-76
2022/11/08 06:52:59;;;;;;;10.60;1.90;;;;;;;;;;5079245;28;20310;-76
2022/11/08 06:55:25;;;;;;;8.43;1.95;;;;;;;;;;5053984;28;20069;-74
2022/11/08 06:57:51;;;;;;;11.68;2.13;;;;;;;;;;5069681;28;20519;-74
2022/11/08 07:00:17;;;;;;;13.18;2.13;;;;;;;;;;5051511;28;20490;-76
2022/11/08 07:02:43;;;;;;;7.30;1.83;;;;;;;;;;5065304;28;20551;-81
2022/11/08 07:05:09;;;;;;;13.00;2.30;;;;;;;;;;5088966;28;20111;-80
2022/11/08 07:07:35;;;;;;;11.52;2.30;;;;;;;;;;5078246;28;20020;-75
2022/11/08 07:10:00;;;;;;;7.05;2.00;;;;;;;;;;5075073;28;20027;-74
2022/11/08 07:12:25;;;;;;;8.27;1.77;;;;;;;;;;5089067;28;20119;-77
2022/11/08 07:14:51;;;;;;;9.98;2.10;;;;;;;;;;5074435;28;20384;-75
2022/11/08 07:17:16;;;;;;;9.93;2.20;;;;;;;;;;5094073;28;20031;-74
2022/11/08 07:19:42;;;;;;;9.25;1.88;;;;;;;;;;5089299;28;20020;-83
2022/11/08 07:22:07;;;;;;;9.00;1.98;;;;;;;;;;5093557;28;20020;-77
2022/11/08 07:24:32;;;;;;;9.63;1.70;;;;;;;;;;5099114;28;20016;-78
2022/11/08 07:26:58;;;;;;;10.30;2.10;;;;;;;;;;5096512;28;20526;-77
2022/11/08 07:29:23;;;;;;;9.10;2.20;;;;;;;;;;5091932;28;20016;-78
2022/11/08 07:31:48;;;;;;;8.95;1.90;;;;;;;;;;5089465;28;20035;-78
2022/11/08 07:34:14;;;;;;;15.15;2.45;;;;;;;;;;5089812;28;20523;-77
2022/11/08 07:36:40;;;;;;;8.50;1.80;;;;;;;;;;5089306;28;20031;-79
2022/11/08 07:39:05;;;;;;;11.55;1.98;;;;;;;;;;5071525;28;20087;-79
2022/11/08 07:41:31;;;;;;;7.55;1.98;;;;;;;;;;5089410;28;20036;-78
2022/11/08 07:43:56;;;;;;;9.50;2.00;;;;;;;;;;5089025;28;20396;-78
2022/11/08 07:46:21;;;;;;;6.57;1.88;;;;;;;;;;5089180;28;20049;-79
2022/11/08 07:48:51;;;;;;;9.38;2.00;;;;;;;;;;5093891;28;20126;-77
2022/11/08 07:51:16;;;;;;;9.77;2.25;;;;;;;;;;5065907;28;20173;-77
2022/11/08 07:53:42;;;;;;;9.35;1.90;;;;;;;;;;5071576;28;20048;-76
2022/11/08 07:56:08;;;;;;;10.30;2.13;;;;;;;;;;5069472;28;20111;-76
2022/11/08 07:58:33;;;;;;;8.82;2.00;;;;;;;;;;5072491;28;20131;-75
2022/11/08 08:01:01;;;;;;;8.15;1.52;;;;;;;;;;5071578;28;20040;-75
2022/11/08 08:03:26;;;;;;;13.70;2.10;;;;;;;;;;5053380;28;20032;-75
2022/11/08 08:05:55;;;;;;;6.88;1.88;;;;;;;;;;5072707;28;20029;-76
2022/11/08 08:08:20;;;;;;;14.55;2.10;;;;;;;;;;5072694;28;20033;-74
2022/11/08 08:10:46;;;;;;;7.35;1.80;;;;;;;;;;5072547;28;20035;-75
2022/11/08 08:13:12;;;;;;;10.65;1.80;;;;;;;;;;5072021;28;20025;-75
2022/11/08 08:15:37;;;;;;;9.45;2.17;;;;;;;;;;5072612;28;20036;-76
2022/11/08 08:18:04;;;;;;;9.43;1.92;;;;;;;;;;5071025;28;20028;-78
2022/11/08 08:20:31;;;;;;;7.28;1.70;;;;;;;;;;5072370;28;20487;-77
2022/11/08 08:22:56;;;;;;;9.38;1.80;;;;;;;;;;5053898;28;20094;-77
2022/11/08 08:25:22;;;;;;;8.73;1.70;;;;;;;;;;5072308;28;20492;-76
2022/11/08 08:27:49;;;;;;;7.07;1.63;;;;;;;;;;5072053;28;20420;-75
2022/11/08 08:30:16;;;;;;;7.38;1.67;;;;;;;;;;5054524;28;20024;-77
2022/11/08 08:32:42;;;;;;;6.40;1.70;;;;;;;;;;5071963;28;20055;-76
2022/11/08 08:35:08;;;;;;;9.13;1.90;;;;;;;;;;5072084;28;20028;-76
2022/11/08 08:37:33;;;;;;;14.13;1.70;;;;;;;;;;5071955;28;20029;-76
2022/11/08 08:39:58;;;;;;;7.30;1.65;;;;;;;;;;5072336;28;20024;-79
2022/11/08 08:42:24;;;;;;;8.93;1.67;;;;;;;;;;5071539;28;20028;-78
2022/11/08 08:44:49;;;;;;;6.32;1.67;;;;;;;;;;5072303;28;20441;-77
2022/11/08 08:47:15;;;;;;;10.15;2.03;;;;;;;;;;5070848;28;20052;-78
2022/11/08 08:49:40;;;;;;;10.55;2.08;;;;;;;;;;5071895;28;20642;-77
2022/11/08 08:52:06;;;;;;;8.25;2.20;;;;;;;;;;5071605;28;20513;-78
2022/11/08 08:54:31;;;;;;;11.10;2.00;;;;;;;;;;5071527;28;20028;-77
2022/11/08 08:56:56;;;;;;;7.78;1.85;;;;;;;;;;5071244;28;20519;-77
2022/11/08 08:59:22;;;;;;;10.52;2.25;;;;;;;;;;5071662;28;20025;-76
2022/11/08 09:01:47;;;;;;;7.88;2.13;;;;;;;;;;5071378;28;20031;-74
2022/11/08 09:04:13;;;;;;;9.10;1.85;;;;;;;;;;5071562;28;20070;-75
2022/11/08 09:06:38;;;;;;;9.52;1.70;;;;;;;;;;5071559;28;20040;-76
2022/11/08 09:09:04;;;;;;;9.40;1.73;;;;;;;;;;5071727;28;20116;-76
2022/11/08 09:11:29;;;;;;;5.90;1.63;;;;;;;;;;5070310;28;20060;-77
2022/11/08 09:13:54;;;;;;;12.27;1.88;;;;;;;;;;5070979;28;20116;-76
2022/11/08 09:16:20;;;;;;;8.88;2.03;;;;;;;;;;5071511;28;20067;-76
2022/11/08 09:18:45;;;;;;;8.88;2.10;;;;;;;;;;5071279;28;20073;-77
2022/11/08 09:21:11;;;;;;;6.53;1.70;;;;;;;;;;5071412;28;20097;-76
2022/11/08 09:23:36;;;;;;;7.00;1.90;;;;;;;;;;5053081;28;20025;-77
2022/11/08 09:26:04;;;;;;;9.70;1.88;;;;;;;;;;5071420;28;20052;-77
2022/11/08 09:28:31;;;;;;;10.55;1.73;;;;;;;;;;5070926;28;20089;-77
2022/11/08 09:31:10;;;;;;;9.90;1.85;;;;;;;;;;5071267;28;20032;-76
2022/11/08 09:33:38;;;;;;;7.45;1.60;;;;;;;;;;5070817;28;20476;-75
2022/11/08 09:36:05;;;;;;;10.00;1.83;;;;;;;;;;5071237;28;20078;-75
2022/11/08 09:38:31;;;;;;;11.35;2.03;;;;;;;;;;5070775;28;20021;-76
2022/11/08 09:41:02;;;;;;;9.57;2.10;;;;;;;;;;5070965;28;20037;-75
2022/11/08 09:43:43;;;;;;;11.90;1.88;;;;;;;;;;5052666;28;20103;-75
2022/11/08 09:46:09;;;;;;;;;;;;;;;;;;5071691;28;20507;-76
2022/11/08 09:48:39;;;;;;;10.25;1.67;;;;;;;;;;5070641;28;19912;-74
2022/11/08 09:51:14;;;;;;;6.85;1.83;;;;;;;;;;5070826;28;20408;-76
2022/11/08 09:53:55;;;;;;;7.68;1.95;;;;;;;;;;5070442;28;20686;-75
2022/11/08 09:56:20;;;;;;;10.77;1.80;;;;;;;;;;5070812;28;20098;-76
2022/11/08 09:59:16;;;;;;;7.88;1.80;;;;;;;;;;5052303;28;20261;-75
2022/11/08 10:01:41;;;;;;;7.43;1.80;;;;;;;;;;5070695;28;20056;-75
2022/11/08 10:04:19;;;;;;;7.65;1.60;;;;;;;;;;5070129;28;20610;-75
2022/11/08 10:07:18;;;;;;;8.05;1.58;;;;;;;;;;5070456;28;20077;-75
2022/11/08 10:10:02;;;;;;;9.32;2.00;;;;;;;;;;5070580;28;20516;-75
2022/11/08 10:12:53;;;;;;;8.77;2.00;;;;;;;;;;5052337;28;20384;-75
2022/11/08 10:15:25;;;;;;;;;;;;;;;;;;5059201;28;20020;-75
2022/11/08 10:18:09;;;;;;;7.03;2.15;;;;;;;;;;5052222;28;19999;-80
2022/11/08 10:21:00;;;;;;;10.52;1.80;;;;;;;;;;5052679;28;20131;-79
2022/11/08 10:23:41;;;;;;;10.10;1.80;;;;;;;;;;5069628;28;20067;-76
2022/11/08 10:26:22;;;;;;;7.75;1.65;;;;;;;;;;5052459;28;20172;-75
2022/11/08 10:28:59;;;;;;;8.70;1.88;;;;;;;;;;5069823;28;20033;-76
2022/11/08 10:31:29;;;;;;;11.65;2.20;;;;;;;;;;5071132;28;20024;-77
2022/11/08 10:33:57;;;;;;;13.48;1.88;;;;;;;;;;5079116;28;20546;-77
2022/11/08 10:36:26;;;;;;;8.80;1.77;;;;;;;;;;5083103;28;20040;-76
2022/11/08 10:38:59;;;;;;;7.30;1.88;;;;;;;;;;5091166;28;20031;-76
2022/11/08 10:41:38;;;;;;;9.25;2.20;;;;;;;;;;5088414;28;20037;-75
2022/11/08 10:44:11;;;;;;;11.00;1.90;;;;;;;;;;5085898;28;20031;-75
2022/11/08 10:46:49;;;;;;;6.75;1.70;;;;;;;;;;5075898;28;20035;-77
2022/11/08 10:49:27;;;;;;;12.55;1.75;;;;;;;;;;5070346;28;20028;-76
2022/11/08 10:51:55;;;;;;;7.95;1.90;;;;;;;;;;5101383;28;20023;-76
2022/11/08 10:55:00;;;;;;;12.40;2.05;;;;;;;;;;5093528;28;20122;-77
2022/11/08 10:57:31;;;;;;;8.70;1.60;;;;;;;;;;5090447;28;20046;-75
2022/11/08 11:00:15;;;;;;;5.45;1.50;;;;;;;;;;5066113;28;20457;-75
2022/11/08 11:02:42;;;;;;;5.32;1.70;;;;;;;;;;5077591;28;20039;-75
2022/11/08 11:05:20;;;;;;;8.13;1.67;;;;;;;;;;5086251;28;20101;-75
2022/11/08 11:07:51;;;;;;;8.15;1.80;;;;;;;;;;5073179;28;20418;-75
2022/11/08 11:10:26;;;;;;;7.35;1.95;;;;;;;;;;5084799;28;20036;-75
2022/11/08 11:13:10;;;;;;;8.18;1.80;;;;;;;;;;5082591;28;20115;-75
2022/11/08 11:16:03;;;;;;;5.30;2.00;;;;;;;;;;5069265;28;20021;-75
2022/11/08 11:18:33;;;;;;;7.68;1.88;;;;;;;;;;5086090;28;20031;-75
2022/11/08 11:21:06;;;;;;;7.47;1.90;;;;;;;;;;5074192;28;20030;-75
2022/11/08 11:23:39;;;;;;;10.05;1.70;;;;;;;;;;5076221;28;20112;-75
2022/11/08 11:26:07;;;;;;;9.25;1.92;;;;;;;;;;5069995;28;20036;-81
2022/11/08 11:28:34;;;;;;;9.15;2.20;;;;;;;;;;5088786;28;20020;-87
2022/11/08 11:31:14;;;;;;;9.40;2.25;;;;;;;;;;5050791;28;20060;-77
2022/11/08 11:33:45;;;;;;;8.20;2.00;;;;;;;;;;5071200;28;20027;-79
2022/11/08 11:36:16;;;;;;;7.10;1.70;;;;;;;;;;5088958;28;20783;-77
2022/11/08 11:38:59;;;;;;;8.32;2.05;;;;;;;;;;5093316;28;20028;-78
2022/11/08 11:41:38;;;;;;;8.35;1.60;;;;;;;;;;5093058;28;20032;-77
2022/11/08 11:44:19;;;;;;;8.23;1.90;;;;;;;;;;5093028;28;20506;-78
2022/11/08 11:46:54;;;;;;;12.35;2.13;;;;;;;;;;5075249;28;20024;-77
2022/11/08 11:49:20;;;;;;;9.40;1.77;;;;;;;;;;5074469;28;20116;-77
2022/11/08 11:51:46;;;;;;;8.63;2.10;;;;;;;;;;5093307;28;20036;-83
2022/11/08 11:54:15;;;;;;;6.30;1.83;;;;;;;;;;5092665;28;20039;-76
2022/11/08 11:56:52;;;;;;;7.38;1.83;;;;;;;;;;5075038;28;20467;-80
2022/11/08 11:59:39;;;;;;;6.43;1.80;;;;;;;;;;5083129;28;20028;-82
2022/11/08 12:02:32;;;;;;;7.75;1.90;;;;;;;;;;5080203;28;20499;-81
2022/11/08 12:05:35;;;;;;;11.10;2.00;;;;;;;;;;5082103;28;20055;-83
2022/11/08 12:08:29;;;;;;;7.47;1.95;;;;;;;;;;5081204;28;20028;-81
2022/11/08 12:11:00;;;;;;;7.97;2.10;;;;;;;;;;5074531;28;20119;-87
2022/11/08 12:14:03;;;;;;;8.13;1.83;;;;;;;;;;5094918;28;20034;-83
2022/11/08 12:16:41;;;;;;;6.22;2.00;;;;;;;;;;5084529;28;20024;-84
2022/11/08 12:19:07;;;;;;;8.25;1.98;;;;;;;;;;5074934;28;20552;-79
2022/11/08 12:21:47;;;;;;;8.27;1.85;;;;;;;;;;5093374;28;20031;-79
2022/11/08 12:24:44;;;;;;;11.70;2.10;;;;;;;;;;5074266;28;20402;-79
2022/11/08 12:27:42;;;;;;;12.23;2.03;;;;;;;;;;5092272;28;20480;-83
2022/11/08 12:30:16;;;;;;;11.57;2.33;;;;;;;;;;5078726;28;20468;-77
2022/11/08 12:33:06;;;;;;;6.03;1.85;;;;;;;;;;5070627;28;20067;-82
2022/11/08 12:35:35;;;;;;;10.32;1.90;;;;;;;;;;5071353;28;20017;-80
2022/11/08 12:38:30;;;;;;;8.73;2.00;;;;;;;;;;5072321;28;20442;-81
2022/11/08 12:41:33;;;;;;;10.00;2.03;;;;;;;;;;5066006;28;20029;-83
2022/11/08 12:44:16;;;;;;;8.23;2.15;;;;;;;;;;5067302;28;20040;-78
2022/11/08 12:47:08;;;;;;;6.70;1.75;;;;;;;;;;5079548;28;20517;-80
2022/11/08 12:49:50;;;;;;;6.10;1.70;;;;;;;;;;5080121;28;20073;-80
2022/11/08 12:52:38;;;;;;;5.30;1.60;;;;;;;;;;5073975;28;20035;-79
2022/11/08 12:55:12;;;;;;;10.85;1.90;;;;;;;;;;5091452;28;20040;-80
2022/11/08 12:57:39;;;;;;;9.68;1.90;;;;;;;;;;5080555;28;20114;-80
2022/11/08 13:00:16;;;;;;;7.45;2.00;;;;;;;;;;5078002;28;20035;-82
2022/11/08 13:02:45;;;;;;;7.45;1.70;;;;;;;;;;5090591;28;20031;-80
2022/11/08 13:05:30;;;;;;;7.78;1.73;;;;;;;;;;5072076;28;20059;-81
2022/11/08 13:08:31;;;;;;;5.72;1.60;;;;;;;;;;5091280;28;20024;-83
2022/11/08 13:11:03;;;;;;;8.25;1.85;;;;;;;;;;5031063;28;20129;-81
2022/11/08 13:13:51;;;;;;;9.38;2.13;;;;;;;;;;5091591;28;20043;-79
2022/11/08 13:16:20;;;;;;;10.95;1.83;;;;;;;;;;5073002;28;20031;-83
2022/11/08 13:18:48;;;;;;;8.57;2.00;;;;;;;;;;5092191;28;20032;-86
2022/11/08 13:21:30;;;;;;;8.95;2.20;;;;;;;;;;5091156;28;20538;-85
2022/11/08 13:24:01;;;;;;;11.05;1.73;;;;;;;;;;5072047;28;20107;-88
2022/11/08 13:26:32;;;;;;;7.95;1.63;;;;;;;;;;5053271;28;20040;-79
2022/11/08 13:29:16;;;;;;;9.88;1.90;;;;;;;;;;5063333;28;20407;-84
2022/11/08 13:32:00;;;;;;;6.55;1.90;;;;;;;;;;5091459;28;20039;-78
2022/11/08 13:34:56;;;;;;;10.35;1.83;;;;;;;;;;5091234;28;20028;-82
2022/11/08 13:37:52;;;;;;;9.20;1.85;;;;;;;;;;5090703;28;20068;-80
2022/11/08 13:40:27;;;;;;;9.38;1.90;;;;;;;;;;5082813;28;20029;-80
2022/11/08 13:43:12;;;;;;;8.02;1.70;;;;;;;;;;5087166;28;20031;-77
2022/11/08 13:45:38;;;;;;;8.77;1.92;;;;;;;;;;5072776;28;20062;-81
2022/11/08 13:48:36;;;;;;;8.82;2.20;;;;;;;;;;5090835;28;20507;-85
2022/11/08 13:51:23;;;;;;;6.07;1.77;;;;;;;;;;5090581;28;20581;-84
2022/11/08 13:53:53;;;;;;;12.15;2.20;;;;;;;;;;5090019;28;20028;-83
2022/11/08 13:56:41;;;;;;;7.35;1.83;;;;;;;;;;5090330;28;20032;-81
2022/11/08 13:59:29;;;;;;;12.52;1.90;;;;;;;;;;5072431;28;20043;-81
2022/11/08 14:01:59;;;;;;;8.05;2.00;;;;;;;;;;5090480;28;20548;-79
2022/11/08 14:04:32;;;;;;;10.07;1.90;;;;;;;;;;5072775;28;20505;-82
2022/11/08 14:07:21;;;;;;;11.40;1.90;;;;;;;;;;5090860;28;20034;-79
2022/11/08 14:09:53;;;;;;;5.95;2.00;;;;;;;;;;5070838;28;20054;-80
2022/11/08 14:12:33;;;;;;;8.57;1.90;;;;;;;;;;5075044;28;20030;-81
2022/11/08 14:15:36;;;;;;;8.82;2.00;;;;;;;;;;5088678;28;20052;-82
2022/11/08 14:18:11;;;;;;;7.55;1.98;;;;;;;;;;5076776;28;20028;-79
2022/11/08 14:20:43;;;;;;;9.32;2.00;;;;;;;;;;5067169;28;20690;-82
2022/11/08 14:23:17;;;;;;;6.90;1.90;;;;;;;;;;5079706;28;20569;-82
2022/11/08 14:26:18;;;;;;;8.65;1.92;;;;;;;;;;5089089;28;20617;-81
2022/11/08 14:28:45;;;;;;;6.25;1.60;;;;;;;;;;5085351;28;20072;-82
2022/11/08 14:31:27;;;;;;;5.05;1.67;;;;;;;;;;5090237;28;20023;-82
2022/11/08 14:33:53;;;;;;;9.32;2.00;;;;;;;;;;5080617;28;20050;-81
2022/11/08 14:36:20;;;;;;;6.53;1.70;;;;;;;;;;5067975;28;20193;-78
2022/11/08 14:38:48;;;;;;;9.38;1.85;;;;;;;;;;5068355;28;20028;-85
2022/11/08 14:41:19;;;;;;;7.68;1.75;;;;;;;;;;5052189;28;20468;-83
2022/11/08 14:43:46;;;;;;;5.18;1.67;;;;;;;;;;5067947;28;20024;-82
2022/11/08 14:46:16;;;;;;;10.48;1.70;;;;;;;;;;5070284;28;20507;-81
2022/11/08 14:48:50;;;;;;;5.57;1.75;;;;;;;;;;5075863;28;20120;-81
2022/11/08 14:51:19;;;;;;;9.10;2.03;;;;;;;;;;5085004;28;20029;-83
2022/11/08 14:53:55;;;;;;;9.27;1.65;;;;;;;;;;5057365;28;20024;-84
2022/11/08 14:59:12;;;;;;;7.10;1.90;;;;;;;;;;5098480;22;20056;-84
2022/11/08 15:01:39;;;;;;;7.18;2.00;;;;;;;;;;5069687;28;20500;-87
2022/11/08 15:04:13;;;;;;;7.68;1.88;;;;;;;;;;5068529;28;20086;-85
2022/11/08 15:06:41;;;;;;;8.63;1.92;;;;;;;;;;5055049;28;20024;-85
2022/11/08 15:09:27;;;;;;;6.07;1.85;;;;;;;;;;5073778;28;20025;-85
2022/11/08 15:12:05;;;;;;;9.52;2.05;;;;;;;;;;5073475;28;20039;-84
2022/11/08 15:14:35;;;;;;;8.18;1.88;;;;;;;;;;5055841;28;20025;-85
2022/11/08 15:17:01;;;;;;;7.55;1.90;;;;;;;;;;5073356;28;20059;-84
2022/11/08 15:19:45;;;;;;;9.25;2.45;;;;;;;;;;5073689;28;20064;-86
2022/11/08 15:22:35;;;;;;;7.72;1.80;;;;;;;;;;5073460;28;20056;-84
2022/11/08 15:25:07;;;;;;;;;;;;;;;;;;5055985;28;20491;-83